Main page
METAR-TAF:

METAR-TAF

Airports :

Kunming Changshui International Airport

Kunming, China

latitude: 25-01N, longitude: 102-41E, elevation: 1892 m

Current weather observation

The report was made 19 minutes ago, at 05:00 UTC
Wind 6 kt from the North/Northeast, varying between North/Northwest and Northeast
Temperature 3°C
Humidity 75%
Pressure 1033 hPa
Visibility 10 km or more
Scattered clouds at a height of 4000 ft

METAR: ZPPP 060500Z 02003MPS 340V050 9999 SCT040 03/M01 Q1033 NOSIG

Time: 13:19 (05:19 UTC)

Forecast

The report was made 10 hours and 5 minutes ago, at 19:14 UTC
Forecast valid from 06 at 00 UTC to 06 at 24 UTC
Wind 8 kt from the East/Northeast
Visibility 10 km or more
Few clouds at a height of 2600 ft

TAF: ZPPP 051914Z 0600/0624 06004MPS 9999 FEW026 TX10/0608Z TNM04/00Z

Weather observations and forecasts of more than 4000 airports (METAR and TAF reports).

The available stations are represented by yellow and red dots on the map.

Hover mouse over dot to see the name of the station.

Then click to see weather observations and forecasts.

To change the map : click on the green buttons with a black cross to zoom in, on the green button with a dash to zoom out, or on the green arrows for adjacent maps.


METAR-TAF: